sensor_id;sensor_type;location;lat;lon;timestamp;P1;durP1;ratioP1;P2;durP2;ratioP2
71916;SDS011;59793;46.506;6.674;2023-11-21T00:01:47;6.65;;;1.58;;
71916;SDS011;59793;46.506;6.674;2023-11-21T00:04:15;9.18;;;1.98;;
71916;SDS011;59793;46.506;6.674;2023-11-21T00:06:43;5.35;;;1.95;;
71916;SDS011;59793;46.506;6.674;2023-11-21T00:09:15;9.20;;;2.13;;
71916;SDS011;59793;46.506;6.674;2023-11-21T00:11:42;9.10;;;2.72;;
71916;SDS011;59793;46.506;6.674;2023-11-21T00:14:35;5.53;;;2.03;;
71916;SDS011;59793;46.506;6.674;2023-11-21T00:17:24;11.77;;;2.33;;
71916;SDS011;59793;46.506;6.674;2023-11-21T00:19:51;10.63;;;2.67;;
71916;SDS011;59793;46.506;6.674;2023-11-21T00:22:21;11.00;;;2.83;;
71916;SDS011;59793;46.506;6.674;2023-11-21T00:24:46;8.88;;;2.20;;
71916;SDS011;59793;46.506;6.674;2023-11-21T00:27:15;10.73;;;2.50;;
71916;SDS011;59793;46.506;6.674;2023-11-21T00:29:41;9.20;;;2.10;;
71916;SDS011;59793;46.506;6.674;2023-11-21T00:34:42;8.52;;;2.13;;
71916;SDS011;59793;46.506;6.674;2023-11-21T00:37:08;5.32;;;1.40;;
71916;SDS011;59793;46.506;6.674;2023-11-21T00:39:37;9.35;;;1.92;;
71916;SDS011;59793;46.506;6.674;2023-11-21T00:42:05;4.68;;;1.60;;
71916;SDS011;59793;46.506;6.674;2023-11-21T00:44:37;4.38;;;1.50;;
71916;SDS011;59793;46.506;6.674;2023-11-21T00:47:06;5.45;;;1.20;;
71916;SDS011;59793;46.506;6.674;2023-11-21T00:49:52;6.68;;;1.30;;
71916;SDS011;59793;46.506;6.674;2023-11-21T00:52:25;7.95;;;1.55;;
71916;SDS011;59793;46.506;6.674;2023-11-21T00:54:57;10.52;;;1.90;;
71916;SDS011;59793;46.506;6.674;2023-11-21T00:57:48;4.95;;;2.08;;
71916;SDS011;59793;46.506;6.674;2023-11-21T01:00:15;5.65;;;1.38;;
71916;SDS011;59793;46.506;6.674;2023-11-21T01:02:52;6.80;;;1.42;;
71916;SDS011;59793;46.506;6.674;2023-11-21T01:05:20;5.45;;;1.58;;
71916;SDS011;59793;46.506;6.674;2023-11-21T01:07:46;6.68;;;1.63;;
71916;SDS011;59793;46.506;6.674;2023-11-21T01:10:32;5.78;;;1.63;;
71916;SDS011;59793;46.506;6.674;2023-11-21T01:13:13;10.02;;;1.65;;
71916;SDS011;59793;46.506;6.674;2023-11-21T01:15:45;6.30;;;1.40;;
71916;SDS011;59793;46.506;6.674;2023-11-21T01:18:12;7.07;;;1.50;;
71916;SDS011;59793;46.506;6.674;2023-11-21T01:20:37;4.32;;;1.45;;
71916;SDS011;59793;46.506;6.674;2023-11-21T01:23:06;9.20;;;1.65;;
71916;SDS011;59793;46.506;6.674;2023-11-21T01:25:32;4.68;;;1.35;;
71916;SDS011;59793;46.506;6.674;2023-11-21T01:30:29;3.60;;;1.13;;
71916;SDS011;59793;46.506;6.674;2023-11-21T01:32:57;6.40;;;1.30;;
71916;SDS011;59793;46.506;6.674;2023-11-21T01:37:49;3.60;;;1.10;;
71916;SDS011;59793;46.506;6.674;2023-11-21T01:40:16;4.50;;;0.80;;
71916;SDS011;59793;46.506;6.674;2023-11-21T01:42:46;6.85;;;1.85;;
71916;SDS011;59793;46.506;6.674;2023-11-21T01:45:13;7.40;;;1.20;;
71916;SDS011;59793;46.506;6.674;2023-11-21T01:47:40;5.80;;;1.10;;
71916;SDS011;59793;46.506;6.674;2023-11-21T01:50:08;3.03;;;1.00;;
71916;SDS011;59793;46.506;6.674;2023-11-21T01:52:39;4.35;;;1.17;;
71916;SDS011;59793;46.506;6.674;2023-11-21T01:55:10;5.60;;;1.60;;
71916;SDS011;59793;46.506;6.674;2023-11-21T01:57:40;12.75;;;1.65;;
71916;SDS011;59793;46.506;6.674;2023-11-21T02:00:06;5.40;;;1.27;;
71916;SDS011;59793;46.506;6.674;2023-11-21T02:02:45;4.30;;;1.52;;
71916;SDS011;59793;46.506;6.674;2023-11-21T02:05:13;4.05;;;1.13;;
71916;SDS011;59793;46.506;6.674;2023-11-21T02:07:43;9.05;;;1.15;;
71916;SDS011;59793;46.506;6.674;2023-11-21T02:10:09;5.35;;;1.30;;
71916;SDS011;59793;46.506;6.674;2023-11-21T02:12:39;6.28;;;1.35;;
71916;SDS011;59793;46.506;6.674;2023-11-21T02:15:09;3.50;;;1.67;;
71916;SDS011;59793;46.506;6.674;2023-11-21T02:17:43;6.43;;;1.08;;
71916;SDS011;59793;46.506;6.674;2023-11-21T02:20:12;5.18;;;1.38;;
71916;SDS011;59793;46.506;6.674;2023-11-21T02:22:40;6.35;;;1.63;;
71916;SDS011;59793;46.506;6.674;2023-11-21T02:25:08;7.88;;;1.60;;
71916;SDS011;59793;46.506;6.674;2023-11-21T02:27:54;7.07;;;1.33;;
71916;SDS011;59793;46.506;6.674;2023-11-21T02:32:48;6.82;;;1.20;;
71916;SDS011;59793;46.506;6.674;2023-11-21T02:35:14;7.07;;;1.60;;
71916;SDS011;59793;46.506;6.674;2023-11-21T02:37:42;4.93;;;0.98;;
71916;SDS011;59793;46.506;6.674;2023-11-21T02:40:08;6.90;;;1.50;;
71916;SDS011;59793;46.506;6.674;2023-11-21T02:42:38;4.32;;;1.23;;
71916;SDS011;59793;46.506;6.674;2023-11-21T02:47:35;1.88;;;1.08;;
71916;SDS011;59793;46.506;6.674;2023-11-21T02:50:04;4.80;;;1.88;;
71916;SDS011;59793;46.506;6.674;2023-11-21T02:52:31;6.50;;;2.55;;
71916;SDS011;59793;46.506;6.674;2023-11-21T02:54:58;7.03;;;1.70;;
71916;SDS011;59793;46.506;6.674;2023-11-21T02:57:24;4.38;;;0.90;;
71916;SDS011;59793;46.506;6.674;2023-11-21T02:59:49;7.75;;;1.40;;
71916;SDS011;59793;46.506;6.674;2023-11-21T03:02:16;5.43;;;1.50;;
71916;SDS011;59793;46.506;6.674;2023-11-21T03:04:42;3.57;;;0.93;;
71916;SDS011;59793;46.506;6.674;2023-11-21T03:07:10;5.57;;;1.23;;
71916;SDS011;59793;46.506;6.674;2023-11-21T03:09:36;4.07;;;0.93;;
71916;SDS011;59793;46.506;6.674;2023-11-21T03:12:01;4.30;;;1.30;;
71916;SDS011;59793;46.506;6.674;2023-11-21T03:14:29;3.58;;;1.25;;
71916;SDS011;59793;46.506;6.674;2023-11-21T03:16:56;6.15;;;1.63;;
71916;SDS011;59793;46.506;6.674;2023-11-21T03:19:22;4.20;;;1.40;;
71916;SDS011;59793;46.506;6.674;2023-11-21T03:21:55;7.95;;;1.55;;
71916;SDS011;59793;46.506;6.674;2023-11-21T03:24:38;10.45;;;1.35;;
71916;SDS011;59793;46.506;6.674;2023-11-21T03:27:04;8.57;;;1.27;;
71916;SDS011;59793;46.506;6.674;2023-11-21T03:29:30;5.55;;;1.00;;
71916;SDS011;59793;46.506;6.674;2023-11-21T03:31:59;8.40;;;1.33;;
71916;SDS011;59793;46.506;6.674;2023-11-21T03:34:26;6.33;;;1.23;;
71916;SDS011;59793;46.506;6.674;2023-11-21T03:36:53;4.07;;;1.10;;
71916;SDS011;59793;46.506;6.674;2023-11-21T03:39:22;5.63;;;1.30;;
71916;SDS011;59793;46.506;6.674;2023-11-21T03:41:49;7.63;;;1.55;;
71916;SDS011;59793;46.506;6.674;2023-11-21T03:44:14;8.25;;;1.30;;
71916;SDS011;59793;46.506;6.674;2023-11-21T03:46:41;3.95;;;1.20;;
71916;SDS011;59793;46.506;6.674;2023-11-21T03:49:10;4.75;;;1.15;;
71916;SDS011;59793;46.506;6.674;2023-11-21T03:51:36;6.18;;;1.30;;
71916;SDS011;59793;46.506;6.674;2023-11-21T03:54:04;7.60;;;1.38;;
71916;SDS011;59793;46.506;6.674;2023-11-21T03:56:32;5.72;;;1.52;;
71916;SDS011;59793;46.506;6.674;2023-11-21T03:59:06;2.33;;;0.82;;
71916;SDS011;59793;46.506;6.674;2023-11-21T04:01:34;4.40;;;1.20;;
71916;SDS011;59793;46.506;6.674;2023-11-21T04:04:01;6.65;;;1.23;;
71916;SDS011;59793;46.506;6.674;2023-11-21T04:06:28;5.43;;;1.23;;
71916;SDS011;59793;46.506;6.674;2023-11-21T04:08:54;3.55;;;1.35;;
71916;SDS011;59793;46.506;6.674;2023-11-21T04:11:19;5.30;;;1.27;;
71916;SDS011;59793;46.506;6.674;2023-11-21T04:13:45;4.80;;;1.25;;
71916;SDS011;59793;46.506;6.674;2023-11-21T04:16:12;5.25;;;1.40;;
71916;SDS011;59793;46.506;6.674;2023-11-21T04:18:39;5.82;;;1.67;;
71916;SDS011;59793;46.506;6.674;2023-11-21T04:21:25;3.60;;;1.30;;
71916;SDS011;59793;46.506;6.674;2023-11-21T04:23:50;7.28;;;1.85;;
71916;SDS011;59793;46.506;6.674;2023-11-21T04:26:16;3.97;;;1.17;;
71916;SDS011;59793;46.506;6.674;2023-11-21T04:28:42;4.28;;;1.95;;
71916;SDS011;59793;46.506;6.674;2023-11-21T04:31:09;3.25;;;1.38;;
71916;SDS011;59793;46.506;6.674;2023-11-21T04:33:34;5.63;;;1.27;;
71916;SDS011;59793;46.506;6.674;2023-11-21T04:36:05;5.47;;;1.25;;
71916;SDS011;59793;46.506;6.674;2023-11-21T04:38:32;6.15;;;1.23;;
71916;SDS011;59793;46.506;6.674;2023-11-21T04:40:58;4.20;;;1.17;;
71916;SDS011;59793;46.506;6.674;2023-11-21T04:43:35;5.45;;;1.17;;
71916;SDS011;59793;46.506;6.674;2023-11-21T04:46:00;5.38;;;1.08;;
71916;SDS011;59793;46.506;6.674;2023-11-21T04:48:28;3.53;;;1.35;;
71916;SDS011;59793;46.506;6.674;2023-11-21T04:50:54;6.47;;;1.92;;
71916;SDS011;59793;46.506;6.674;2023-11-21T04:53:20;8.82;;;1.55;;
71916;SDS011;59793;46.506;6.674;2023-11-21T04:55:47;5.07;;;1.38;;
71916;SDS011;59793;46.506;6.674;2023-11-21T04:58:19;5.65;;;1.98;;
71916;SDS011;59793;46.506;6.674;2023-11-21T05:01:05;6.90;;;1.55;;
71916;SDS011;59793;46.506;6.674;2023-11-21T05:03:33;5.10;;;1.27;;
71916;SDS011;59793;46.506;6.674;2023-11-21T05:06:01;7.05;;;1.23;;
71916;SDS011;59793;46.506;6.674;2023-11-21T05:08:27;6.30;;;1.17;;
71916;SDS011;59793;46.506;6.674;2023-11-21T05:10:55;2.40;;;0.85;;
71916;SDS011;59793;46.506;6.674;2023-11-21T05:13:20;4.82;;;1.33;;
71916;SDS011;59793;46.506;6.674;2023-11-21T05:15:53;6.38;;;1.42;;
71916;SDS011;59793;46.506;6.674;2023-11-21T05:18:30;5.97;;;1.47;;
71916;SDS011;59793;46.506;6.674;2023-11-21T05:20:56;4.03;;;1.35;;
71916;SDS011;59793;46.506;6.674;2023-11-21T05:23:23;4.65;;;1.13;;
71916;SDS011;59793;46.506;6.674;2023-11-21T05:25:49;8.80;;;1.60;;
71916;SDS011;59793;46.506;6.674;2023-11-21T05:28:17;5.30;;;1.20;;
71916;SDS011;59793;46.506;6.674;2023-11-21T05:30:45;4.78;;;1.30;;
71916;SDS011;59793;46.506;6.674;2023-11-21T05:33:10;4.05;;;1.00;;
71916;SDS011;59793;46.506;6.674;2023-11-21T05:35:37;8.95;;;1.38;;
71916;SDS011;59793;46.506;6.674;2023-11-21T05:38:04;5.07;;;1.08;;
71916;SDS011;59793;46.506;6.674;2023-11-21T05:40:30;5.15;;;1.20;;
71916;SDS011;59793;46.506;6.674;2023-11-21T05:42:57;5.38;;;1.23;;
71916;SDS011;59793;46.506;6.674;2023-11-21T05:45:27;8.52;;;1.38;;
71916;SDS011;59793;46.506;6.674;2023-11-21T05:48:03;7.63;;;1.73;;
71916;SDS011;59793;46.506;6.674;2023-11-21T05:50:31;5.82;;;1.85;;
71916;SDS011;59793;46.506;6.674;2023-11-21T05:52:58;6.28;;;1.38;;
71916;SDS011;59793;46.506;6.674;2023-11-21T05:55:25;10.35;;;1.73;;
71916;SDS011;59793;46.506;6.674;2023-11-21T05:57:51;6.68;;;1.75;;
71916;SDS011;59793;46.506;6.674;2023-11-21T06:00:17;5.30;;;1.50;;
71916;SDS011;59793;46.506;6.674;2023-11-21T06:02:47;5.97;;;1.60;;
71916;SDS011;59793;46.506;6.674;2023-11-21T06:05:18;9.23;;;1.67;;
71916;SDS011;59793;46.506;6.674;2023-11-21T06:07:45;8.27;;;2.20;;
71916;SDS011;59793;46.506;6.674;2023-11-21T06:10:13;6.28;;;1.15;;
71916;SDS011;59793;46.506;6.674;2023-11-21T06:12:39;7.43;;;1.60;;
71916;SDS011;59793;46.506;6.674;2023-11-21T06:15:07;7.80;;;1.55;;
71916;SDS011;59793;46.506;6.674;2023-11-21T06:22:41;5.38;;;1.60;;
71916;SDS011;59793;46.506;6.674;2023-11-21T06:25:10;5.78;;;1.30;;
71916;SDS011;59793;46.506;6.674;2023-11-21T06:27:38;6.93;;;2.47;;
71916;SDS011;59793;46.506;6.674;2023-11-21T06:30:10;6.57;;;1.80;;
71916;SDS011;59793;46.506;6.674;2023-11-21T06:32:40;6.97;;;1.70;;
71916;SDS011;59793;46.506;6.674;2023-11-21T06:35:07;6.03;;;2.23;;
71916;SDS011;59793;46.506;6.674;2023-11-21T06:37:36;5.72;;;1.20;;
71916;SDS011;59793;46.506;6.674;2023-11-21T06:40:17;5.88;;;2.00;;
71916;SDS011;59793;46.506;6.674;2023-11-21T06:42:45;9.85;;;1.95;;
71916;SDS011;59793;46.506;6.674;2023-11-21T06:45:12;8.80;;;2.15;;
71916;SDS011;59793;46.506;6.674;2023-11-21T06:47:38;7.82;;;1.70;;
71916;SDS011;59793;46.506;6.674;2023-11-21T06:50:05;6.07;;;1.40;;
71916;SDS011;59793;46.506;6.674;2023-11-21T06:52:32;4.20;;;1.08;;
71916;SDS011;59793;46.506;6.674;2023-11-21T06:55:00;10.90;;;1.60;;
71916;SDS011;59793;46.506;6.674;2023-11-21T06:57:31;6.93;;;1.25;;
71916;SDS011;59793;46.506;6.674;2023-11-21T07:00:02;5.28;;;1.35;;
71916;SDS011;59793;46.506;6.674;2023-11-21T07:02:28;9.18;;;1.73;;
71916;SDS011;59793;46.506;6.674;2023-11-21T07:04:59;4.75;;;1.65;;
71916;SDS011;59793;46.506;6.674;2023-11-21T07:07:27;4.97;;;1.42;;
71916;SDS011;59793;46.506;6.674;2023-11-21T07:09:52;8.48;;;1.50;;
71916;SDS011;59793;46.506;6.674;2023-11-21T07:12:21;5.25;;;1.90;;
71916;SDS011;59793;46.506;6.674;2023-11-21T07:14:49;8.65;;;1.67;;
71916;SDS011;59793;46.506;6.674;2023-11-21T07:17:15;6.35;;;1.80;;
71916;SDS011;59793;46.506;6.674;2023-11-21T07:19:42;8.70;;;1.60;;
71916;SDS011;59793;46.506;6.674;2023-11-21T07:22:08;6.05;;;1.60;;
71916;SDS011;59793;46.506;6.674;2023-11-21T07:24:34;6.55;;;1.55;;
71916;SDS011;59793;46.506;6.674;2023-11-21T07:27:00;10.52;;;1.98;;
71916;SDS011;59793;46.506;6.674;2023-11-21T07:29:28;4.65;;;1.67;;
71916;SDS011;59793;46.506;6.674;2023-11-21T07:31:54;7.15;;;1.30;;
71916;SDS011;59793;46.506;6.674;2023-11-21T07:34:20;6.43;;;1.40;;
71916;SDS011;59793;46.506;6.674;2023-11-21T07:36:46;8.70;;;2.13;;
71916;SDS011;59793;46.506;6.674;2023-11-21T07:39:12;4.30;;;1.27;;
71916;SDS011;59793;46.506;6.674;2023-11-21T07:41:40;7.93;;;1.75;;
71916;SDS011;59793;46.506;6.674;2023-11-21T07:44:10;7.68;;;1.88;;
71916;SDS011;59793;46.506;6.674;2023-11-21T07:46:35;4.57;;;1.48;;
71916;SDS011;59793;46.506;6.674;2023-11-21T07:49:00;10.68;;;1.92;;
71916;SDS011;59793;46.506;6.674;2023-11-21T07:51:26;8.73;;;2.40;;
71916;SDS011;59793;46.506;6.674;2023-11-21T07:53:52;9.38;;;2.25;;
71916;SDS011;59793;46.506;6.674;2023-11-21T07:56:18;6.40;;;2.07;;
71916;SDS011;59793;46.506;6.674;2023-11-21T07:58:43;7.20;;;1.70;;
71916;SDS011;59793;46.506;6.674;2023-11-21T08:01:09;7.15;;;2.15;;
71916;SDS011;59793;46.506;6.674;2023-11-21T08:03:35;5.95;;;1.50;;
71916;SDS011;59793;46.506;6.674;2023-11-21T08:06:01;7.50;;;1.73;;
71916;SDS011;59793;46.506;6.674;2023-11-21T08:08:28;4.22;;;1.70;;
71916;SDS011;59793;46.506;6.674;2023-11-21T08:10:54;8.70;;;1.67;;
71916;SDS011;59793;46.506;6.674;2023-11-21T08:13:26;7.57;;;1.98;;
71916;SDS011;59793;46.506;6.674;2023-11-21T08:15:56;5.35;;;1.75;;
71916;SDS011;59793;46.506;6.674;2023-11-21T08:18:26;8.70;;;2.53;;
71916;SDS011;59793;46.506;6.674;2023-11-21T08:20:52;11.82;;;2.72;;
71916;SDS011;59793;46.506;6.674;2023-11-21T08:23:20;6.22;;;1.80;;
71916;SDS011;59793;46.506;6.674;2023-11-21T08:25:51;5.55;;;1.92;;
71916;SDS011;59793;46.506;6.674;2023-11-21T08:28:18;7.90;;;2.10;;
71916;SDS011;59793;46.506;6.674;2023-11-21T08:30:47;7.57;;;1.90;;
71916;SDS011;59793;46.506;6.674;2023-11-21T08:33:12;14.50;;;2.30;;
71916;SDS011;59793;46.506;6.674;2023-11-21T08:35:38;5.18;;;1.55;;
71916;SDS011;59793;46.506;6.674;2023-11-21T08:38:03;4.83;;;1.80;;
71916;SDS011;59793;46.506;6.674;2023-11-21T08:40:44;9.00;;;2.13;;
71916;SDS011;59793;46.506;6.674;2023-11-21T08:43:09;10.60;;;1.80;;
71916;SDS011;59793;46.506;6.674;2023-11-21T08:45:37;5.05;;;1.98;;
71916;SDS011;59793;46.506;6.674;2023-11-21T08:48:02;6.25;;;1.88;;
71916;SDS011;59793;46.506;6.674;2023-11-21T08:50:28;8.13;;;1.73;;
71916;SDS011;59793;46.506;6.674;2023-11-21T08:52:54;6.38;;;1.63;;
71916;SDS011;59793;46.506;6.674;2023-11-21T08:55:19;8.38;;;2.58;;
71916;SDS011;59793;46.506;6.674;2023-11-21T08:57:45;9.13;;;2.55;;
71916;SDS011;59793;46.506;6.674;2023-11-21T09:00:14;8.60;;;2.20;;
71916;SDS011;59793;46.506;6.674;2023-11-21T09:02:42;6.60;;;2.20;;
71916;SDS011;59793;46.506;6.674;2023-11-21T09:05:09;6.28;;;1.95;;
71916;SDS011;59793;46.506;6.674;2023-11-21T09:07:36;6.82;;;2.50;;
71916;SDS011;59793;46.506;6.674;2023-11-21T09:10:04;8.82;;;2.17;;
71916;SDS011;59793;46.506;6.674;2023-11-21T09:12:32;12.68;;;3.78;;
71916;SDS011;59793;46.506;6.674;2023-11-21T09:14:59;4.10;;;1.75;;
71916;SDS011;59793;46.506;6.674;2023-11-21T09:17:26;8.63;;;2.28;;
71916;SDS011;59793;46.506;6.674;2023-11-21T09:19:53;9.55;;;3.10;;
71916;SDS011;59793;46.506;6.674;2023-11-21T09:22:18;12.27;;;2.05;;
71916;SDS011;59793;46.506;6.674;2023-11-21T09:24:43;8.13;;;2.13;;
71916;SDS011;59793;46.506;6.674;2023-11-21T09:27:09;11.45;;;2.33;;
71916;SDS011;59793;46.506;6.674;2023-11-21T09:29:35;7.40;;;1.93;;
71916;SDS011;59793;46.506;6.674;2023-11-21T09:32:06;5.72;;;1.95;;
71916;SDS011;59793;46.506;6.674;2023-11-21T09:34:37;6.97;;;2.25;;
71916;SDS011;59793;46.506;6.674;2023-11-21T09:37:07;7.78;;;2.90;;
71916;SDS011;59793;46.506;6.674;2023-11-21T09:39:33;8.05;;;2.25;;
71916;SDS011;59793;46.506;6.674;2023-11-21T09:42:08;3.83;;;1.92;;
71916;SDS011;59793;46.506;6.674;2023-11-21T09:44:38;3.88;;;1.58;;
71916;SDS011;59793;46.506;6.674;2023-11-21T09:47:10;6.78;;;1.73;;
71916;SDS011;59793;46.506;6.674;2023-11-21T09:49:41;11.00;;;1.98;;
71916;SDS011;59793;46.506;6.674;2023-11-21T09:52:15;7.30;;;2.00;;
71916;SDS011;59793;46.506;6.674;2023-11-21T09:54:54;4.75;;;1.85;;
71916;SDS011;59793;46.506;6.674;2023-11-21T09:57:23;5.75;;;1.85;;
71916;SDS011;59793;46.506;6.674;2023-11-21T09:59:54;8.43;;;2.30;;
71916;SDS011;59793;46.506;6.674;2023-11-21T10:02:31;10.30;;;2.85;;
71916;SDS011;59793;46.506;6.674;2023-11-21T10:05:01;5.20;;;1.60;;
71916;SDS011;59793;46.506;6.674;2023-11-21T10:07:27;7.28;;;1.95;;
71916;SDS011;59793;46.506;6.674;2023-11-21T10:09:58;7.00;;;2.05;;
71916;SDS011;59793;46.506;6.674;2023-11-21T10:12:25;7.47;;;2.45;;
71916;SDS011;59793;46.506;6.674;2023-11-21T10:17:20;5.90;;;2.22;;
71916;SDS011;59793;46.506;6.674;2023-11-21T10:19:51;7.30;;;2.03;;
71916;SDS011;59793;46.506;6.674;2023-11-21T10:22:19;6.90;;;2.15;;
71916;SDS011;59793;46.506;6.674;2023-11-21T10:24:46;5.63;;;1.60;;
71916;SDS011;59793;46.506;6.674;2023-11-21T10:27:12;4.10;;;1.73;;
71916;SDS011;59793;46.506;6.674;2023-11-21T10:29:39;6.70;;;2.03;;
71916;SDS011;59793;46.506;6.674;2023-11-21T10:32:04;4.82;;;2.05;;
71916;SDS011;59793;46.506;6.674;2023-11-21T10:34:31;6.20;;;1.95;;
71916;SDS011;59793;46.506;6.674;2023-11-21T10:36:56;10.57;;;2.23;;
71916;SDS011;59793;46.506;6.674;2023-11-21T10:39:24;5.28;;;1.98;;
71916;SDS011;59793;46.506;6.674;2023-11-21T10:41:55;4.68;;;1.98;;
71916;SDS011;59793;46.506;6.674;2023-11-21T10:46:50;14.38;;;2.72;;
71916;SDS011;59793;46.506;6.674;2023-11-21T10:49:20;6.10;;;2.22;;
71916;SDS011;59793;46.506;6.674;2023-11-21T10:51:47;8.45;;;2.22;;
71916;SDS011;59793;46.506;6.674;2023-11-21T10:54:17;6.27;;;1.80;;
71916;SDS011;59793;46.506;6.674;2023-11-21T10:56:58;8.68;;;2.58;;
71916;SDS011;59793;46.506;6.674;2023-11-21T10:59:30;6.93;;;2.97;;
71916;SDS011;59793;46.506;6.674;2023-11-21T11:02:10;7.47;;;2.10;;
71916;SDS011;59793;46.506;6.674;2023-11-21T11:04:47;9.73;;;2.15;;
71916;SDS011;59793;46.506;6.674;2023-11-21T11:07:15;5.57;;;1.90;;
71916;SDS011;59793;46.506;6.674;2023-11-21T11:09:44;9.05;;;2.67;;
71916;SDS011;59793;46.506;6.674;2023-11-21T11:12:11;5.72;;;2.28;;
71916;SDS011;59793;46.506;6.674;2023-11-21T11:14:42;7.43;;;2.28;;
71916;SDS011;59793;46.506;6.674;2023-11-21T11:17:09;7.55;;;1.50;;
71916;SDS011;59793;46.506;6.674;2023-11-21T11:22:08;3.53;;;1.38;;
71916;SDS011;59793;46.506;6.674;2023-11-21T11:32:40;5.57;;;1.65;;
71916;SDS011;59793;46.506;6.674;2023-11-21T11:35:31;6.45;;;1.58;;
71916;SDS011;59793;46.506;6.674;2023-11-21T11:37:57;3.92;;;1.00;;
71916;SDS011;59793;46.506;6.674;2023-11-21T11:40:44;2.90;;;1.00;;
71916;SDS011;59793;46.506;6.674;2023-11-21T11:43:11;4.00;;;1.40;;
71916;SDS011;59793;46.506;6.674;2023-11-21T11:45:37;5.43;;;1.67;;
71916;SDS011;59793;46.506;6.674;2023-11-21T11:48:07;2.92;;;1.10;;
71916;SDS011;59793;46.506;6.674;2023-11-21T11:50:41;4.70;;;1.33;;
71916;SDS011;59793;46.506;6.674;2023-11-21T11:53:14;4.45;;;1.17;;
71916;SDS011;59793;46.506;6.674;2023-11-21T11:55:40;3.45;;;1.30;;
71916;SDS011;59793;46.506;6.674;2023-11-21T11:58:08;7.45;;;1.98;;
71916;SDS011;59793;46.506;6.674;2023-11-21T12:00:34;4.30;;;1.50;;
71916;SDS011;59793;46.506;6.674;2023-11-21T12:03:06;7.28;;;1.20;;
71916;SDS011;59793;46.506;6.674;2023-11-21T12:05:34;3.88;;;1.17;;
71916;SDS011;59793;46.506;6.674;2023-11-21T12:08:04;3.67;;;1.15;;
71916;SDS011;59793;46.506;6.674;2023-11-21T12:10:32;5.28;;;1.33;;
71916;SDS011;59793;46.506;6.674;2023-11-21T12:13:03;4.35;;;1.60;;
71916;SDS011;59793;46.506;6.674;2023-11-21T12:15:32;5.05;;;1.60;;
71916;SDS011;59793;46.506;6.674;2023-11-21T12:17:58;6.97;;;2.08;;
71916;SDS011;59793;46.506;6.674;2023-11-21T12:20:25;6.40;;;1.87;;
71916;SDS011;59793;46.506;6.674;2023-11-21T12:22:55;6.97;;;2.88;;
71916;SDS011;59793;46.506;6.674;2023-11-21T12:25:31;6.47;;;2.35;;
71916;SDS011;59793;46.506;6.674;2023-11-21T12:27:59;5.10;;;2.08;;
71916;SDS011;59793;46.506;6.674;2023-11-21T12:30:27;4.28;;;1.50;;
71916;SDS011;59793;46.506;6.674;2023-11-21T12:32:56;7.18;;;1.88;;
71916;SDS011;59793;46.506;6.674;2023-11-21T12:37:50;4.95;;;1.23;;
71916;SDS011;59793;46.506;6.674;2023-11-21T12:42:44;4.40;;;1.60;;
71916;SDS011;59793;46.506;6.674;2023-11-21T12:47:52;4.35;;;0.88;;
71916;SDS011;59793;46.506;6.674;2023-11-21T12:50:24;5.50;;;1.17;;
71916;SDS011;59793;46.506;6.674;2023-11-21T12:52:55;3.92;;;1.15;;
71916;SDS011;59793;46.506;6.674;2023-11-21T12:55:25;2.78;;;1.45;;
71916;SDS011;59793;46.506;6.674;2023-11-21T12:57:52;2.38;;;0.90;;
71916;SDS011;59793;46.506;6.674;2023-11-21T13:00:20;7.60;;;1.48;;
71916;SDS011;59793;46.506;6.674;2023-11-21T13:02:58;2.45;;;0.90;;
71916;SDS011;59793;46.506;6.674;2023-11-21T13:05:27;2.95;;;0.90;;
71916;SDS011;59793;46.506;6.674;2023-11-21T13:07:55;2.35;;;1.38;;
71916;SDS011;59793;46.506;6.674;2023-11-21T13:10:25;5.35;;;1.42;;
71916;SDS011;59793;46.506;6.674;2023-11-21T13:12:58;3.17;;;1.00;;
71916;SDS011;59793;46.506;6.674;2023-11-21T13:15:25;3.92;;;1.10;;
71916;SDS011;59793;46.506;6.674;2023-11-21T13:17:52;3.03;;;0.75;;
71916;SDS011;59793;46.506;6.674;2023-11-21T13:20:19;4.40;;;1.10;;
71916;SDS011;59793;46.506;6.674;2023-11-21T13:22:52;3.80;;;0.98;;
71916;SDS011;59793;46.506;6.674;2023-11-21T13:25:29;2.60;;;0.60;;
71916;SDS011;59793;46.506;6.674;2023-11-21T13:27:56;1.08;;;0.63;;
71916;SDS011;59793;46.506;6.674;2023-11-21T13:30:23;0.50;;;0.30;;
71916;SDS011;59793;46.506;6.674;2023-11-21T13:32:58;1.45;;;0.60;;
71916;SDS011;59793;46.506;6.674;2023-11-21T13:35:30;0.98;;;0.50;;
71916;SDS011;59793;46.506;6.674;2023-11-21T13:38:18;0.40;;;0.35;;
71916;SDS011;59793;46.506;6.674;2023-11-21T13:40:58;2.50;;;0.77;;
71916;SDS011;59793;46.506;6.674;2023-11-21T13:43:26;0.77;;;0.50;;
71916;SDS011;59793;46.506;6.674;2023-11-21T13:45:55;0.50;;;0.40;;
71916;SDS011;59793;46.506;6.674;2023-11-21T13:48:28;0.50;;;0.38;;
71916;SDS011;59793;46.506;6.674;2023-11-21T13:51:05;1.30;;;0.50;;
71916;SDS011;59793;46.506;6.674;2023-11-21T13:53:48;1.98;;;0.50;;
71916;SDS011;59793;46.506;6.674;2023-11-21T13:56:18;1.42;;;0.57;;
71916;SDS011;59793;46.506;6.674;2023-11-21T13:58:53;4.43;;;0.82;;
71916;SDS011;59793;46.506;6.674;2023-11-21T14:01:46;1.40;;;0.75;;
71916;SDS011;59793;46.506;6.674;2023-11-21T14:04:18;2.60;;;1.42;;
71916;SDS011;59793;46.506;6.674;2023-11-21T14:06:43;6.82;;;1.17;;
71916;SDS011;59793;46.506;6.674;2023-11-21T14:09:18;1.20;;;0.65;;
71916;SDS011;59793;46.506;6.674;2023-11-21T14:11:50;2.60;;;0.70;;
71916;SDS011;59793;46.506;6.674;2023-11-21T14:14:17;1.00;;;0.60;;
71916;SDS011;59793;46.506;6.674;2023-11-21T14:16:43;0.60;;;0.60;;
71916;SDS011;59793;46.506;6.674;2023-11-21T14:19:09;8.00;;;0.95;;
71916;SDS011;59793;46.506;6.674;2023-11-21T14:21:41;1.30;;;0.55;;
71916;SDS011;59793;46.506;6.674;2023-11-21T14:24:13;2.13;;;0.63;;
71916;SDS011;59793;46.506;6.674;2023-11-21T14:26:42;0.45;;;0.40;;
71916;SDS011;59793;46.506;6.674;2023-11-21T14:29:11;1.00;;;0.50;;
71916;SDS011;59793;46.506;6.674;2023-11-21T14:31:39;0.65;;;0.65;;
71916;SDS011;59793;46.506;6.674;2023-11-21T14:34:06;0.80;;;0.40;;
71916;SDS011;59793;46.506;6.674;2023-11-21T14:36:35;0.40;;;0.38;;
71916;SDS011;59793;46.506;6.674;2023-11-21T14:39:04;1.50;;;1.00;;
71916;SDS011;59793;46.506;6.674;2023-11-21T14:41:35;1.00;;;0.57;;
71916;SDS011;59793;46.506;6.674;2023-11-21T14:44:01;5.60;;;0.60;;
71916;SDS011;59793;46.506;6.674;2023-11-21T14:46:28;0.75;;;0.52;;
71916;SDS011;59793;46.506;6.674;2023-11-21T14:48:54;0.40;;;0.40;;
71916;SDS011;59793;46.506;6.674;2023-11-21T14:51:48;1.20;;;0.55;;
71916;SDS011;59793;46.506;6.674;2023-11-21T14:54:42;3.97;;;0.60;;
71916;SDS011;59793;46.506;6.674;2023-11-21T14:57:14;0.80;;;0.50;;
71916;SDS011;59793;46.506;6.674;2023-11-21T14:59:48;2.47;;;0.80;;
71916;SDS011;59793;46.506;6.674;2023-11-21T15:02:18;1.42;;;0.55;;
71916;SDS011;59793;46.506;6.674;2023-11-21T15:05:07;2.20;;;1.25;;
71916;SDS011;59793;46.506;6.674;2023-11-21T15:07:39;3.28;;;1.10;;
71916;SDS011;59793;46.506;6.674;2023-11-21T15:10:04;2.58;;;1.17;;
71916;SDS011;59793;46.506;6.674;2023-11-21T15:12:39;1.80;;;0.80;;
71916;SDS011;59793;46.506;6.674;2023-11-21T15:15:06;3.92;;;0.80;;
71916;SDS011;59793;46.506;6.674;2023-11-21T15:17:40;2.03;;;0.80;;
71916;SDS011;59793;46.506;6.674;2023-11-21T15:20:08;1.17;;;0.73;;
71916;SDS011;59793;46.506;6.674;2023-11-21T15:22:34;1.23;;;0.70;;
71916;SDS011;59793;46.506;6.674;2023-11-21T15:24:59;2.70;;;0.83;;
71916;SDS011;59793;46.506;6.674;2023-11-21T15:27:29;2.00;;;1.00;;
71916;SDS011;59793;46.506;6.674;2023-11-21T15:29:54;2.97;;;0.73;;
71916;SDS011;59793;46.506;6.674;2023-11-21T15:32:20;3.53;;;1.33;;
71916;SDS011;59793;46.506;6.674;2023-11-21T15:34:47;0.75;;;0.63;;
71916;SDS011;59793;46.506;6.674;2023-11-21T15:37:12;2.55;;;1.05;;
71916;SDS011;59793;46.506;6.674;2023-11-21T15:39:41;3.20;;;1.00;;
71916;SDS011;59793;46.506;6.674;2023-11-21T15:42:38;0.93;;;0.57;;